Latest Weather Observations for Giles*

IDW60801

Issued at 7:03 am WST Tuesday 30 June 2015 (issued every 30 minutes, with the page automatically refreshed every 10 minutes)

About weather observations | Map of weather stations | Latest weather observations for WA | Other Formats
Station Details ID: 013017 Name: GILES METEOROLOGICAL OFFICE Lat: -25.03 Lon: 128.30 Height: 598.0 m
Data from the previous 72 hours. | See also: Recent months at Giles*

* Giles observations are collected in the South Australia time zone, which includes daylight saving in the summer period. Therefore, Rain since 9am value is with respect to South Australia local time.

Date/Time
WST
Temp
°C
App
Temp
°C
Dew
Point
Rel
Hum
%
Delta-T
°C
Wind Press
QNH
hPa
Press
MSL
hPa
Rain
since 9 am
mm
Dir
 
Spd
km/h
Gust
km/h
Spd
kts
Gust
kts
30/07:00am 12.7 7.9 5.4 61 3.5 E 20 28 11 15 1027.5 1026.7 -
30/06:30am 11.1 6.3 4.9 65 2.9 E 19 24 10 13 1027.2 1026.4 0.0
30/06:00am 10.7 5.7 4.7 66 2.8 E 20 26 11 14 1026.7 1025.8 0.0
30/05:30am 11.2 6.2 4.5 63 3.1 E 20 26 11 14 1026.4 1025.5 0.0
30/05:00am 12.1 6.7 4.4 59 3.6 E 22 30 12 16 1026.0 1025.2 0.0
30/04:30am 12.0 6.6 4.3 59 3.6 E 22 28 12 15 1025.7 1024.9 0.0
30/04:00am 12.3 6.8 3.9 56 3.9 E 22 28 12 15 1025.5 1024.6 0.0
30/03:30am 12.4 6.8 3.7 55 4.0 E 22 32 12 17 1025.5 1024.6 0.0
30/03:00am 11.9 6.7 3.3 55 3.9 E 20 30 11 16 1025.6 1024.8 0.0
30/02:30am 11.1 6.0 3.1 58 3.6 ESE 19 22 10 12 1025.6 1024.8 0.0
30/02:00am 11.6 6.5 3.2 56 3.8 ESE 19 26 10 14 1025.7 1024.9 0.0
30/01:30am 11.3 6.6 3.1 57 3.7 E 17 20 9 11 1025.9 1025.1 0.0
30/01:00am 10.7 6.0 3.1 59 3.4 ESE 17 20 9 11 1025.8 1025.0 0.0
30/12:30am 10.6 6.3 3.0 59 3.4 ESE 15 17 8 9 1025.9 1025.1 0.0
30/12:00am 10.8 6.1 3.0 58 3.5 SE 17 19 9 10 1025.9 1025.1 0.0
 
Date/Time
WST
Temp
°C
App
Temp
°C
Dew
Point
Rel
Hum
%
Delta-T
°C
Wind Press
QNH
hPa
Press
MSL
hPa
Rain
since 9 am
mm
Dir
 
Spd
km/h
Gust
km/h
Spd
kts
Gust
kts
29/11:30pm 13.6 9.2 2.6 47 5.0 E 15 19 8 10 1025.7 1024.9 0.0
29/11:00pm 13.4 9.0 2.6 48 4.9 E 15 17 8 9 1025.9 1025.1 0.0
29/10:30pm 12.9 8.8 2.5 49 4.7 E 13 17 7 9 1026.3 1025.4 0.0
29/10:00pm 12.8 8.7 2.3 49 4.7 ESE 13 15 7 8 1026.3 1025.4 0.0
29/09:30pm 12.9 8.8 2.5 49 4.7 E 13 15 7 8 1026.3 1025.4 0.0
29/09:00pm 11.6 7.6 2.7 54 4.0 ESE 13 13 7 7 1026.3 1025.4 0.0
29/08:30pm 12.7 9.4 2.5 50 4.6 ESE 9 13 5 7 1026.5 1025.6 0.0
29/08:00pm 13.5 10.2 2.7 48 4.9 ESE 9 11 5 6 1026.5 1025.6 0.0
29/07:30pm 14.0 10.7 2.6 46 5.2 ESE 9 11 5 6 1026.5 1025.6 0.0
29/07:00pm 14.6 10.9 2.3 43 5.6 ESE 11 13 6 7 1026.2 1025.3 0.0
29/06:00pm 16.5 13.6 2.5 39 6.5 SE 7 9 4 5 1025.7 1024.9 0.0
29/05:30pm 16.9 14.1 3.1 39 6.5 SE 7 9 4 5 1025.3 1024.4 0.0
29/05:00pm 18.0 15.0 2.1 34 7.4 SSE 7 9 4 5 1024.8 1023.9 0.0
29/04:30pm 19.6 17.6 2.3 31 8.2 ESE 2 7 1 4 1024.3 1023.5 0.0
29/04:00pm 20.3 16.3 0.5 26 9.1 ESE 11 15 6 8 1024.1 1023.3 0.0
29/03:30pm 20.6 17.6 0.8 26 9.2 E 6 17 3 9 1023.9 1023.0 0.0
29/03:00pm 21.4 19.2 1.2 26 9.5 E 2 7 1 4 1023.7 1022.8 0.0
29/02:30pm 21.0 17.4 0.8 26 9.4 ENE 9 20 5 11 1023.7 1022.8 0.0
29/02:00pm 21.0 16.9 0.1 24 9.6 E 11 20 6 11 1023.8 1022.9 0.0
29/01:30pm 20.5 16.2 0.9 27 9.1 ESE 13 20 7 11 1024.0 1023.1 0.0
29/01:00pm 21.0 16.7 1.2 27 9.3 ENE 13 20 7 11 1024.3 1023.5 0.0
29/12:30pm 20.5 17.3 3.2 32 8.4 E 9 17 5 9 1024.7 1023.8 0.0
29/12:00pm 20.4 16.8 3.0 31 8.4 E 11 20 6 11 1025.2 1024.3 0.0
29/11:30am 19.8 15.8 2.9 32 8.2 ENE 13 20 7 11 1025.7 1024.9 0.0
29/11:00am 19.3 15.0 3.0 34 7.8 ENE 15 22 8 12 1026.2 1025.3 0.0
29/10:30am 18.1 13.0 3.2 37 7.1 E 19 28 10 15 1026.6 1025.7 0.0
29/10:00am 17.7 12.5 3.5 38 6.8 E 20 28 11 15 1026.7 1025.8 0.0
29/09:30am 16.4 10.9 4.1 44 5.9 E 22 30 12 16 1027.0 1026.2 0.0
29/09:00am 15.3 9.7 3.6 45 5.5 E 22 28 12 15 1026.9 1026.0 0.0
29/08:30am 14.1 8.5 3.3 48 5.0 E 22 28 12 15 1026.8 1025.9 0.0
29/08:00am 12.5 7.2 3.0 52 4.3 E 20 26 11 14 1026.8 1025.9 0.0
29/07:30am 10.4 5.6 2.7 59 3.4 ESE 17 24 9 13 1026.7 1025.8 0.0
29/07:00am 8.7 3.8 2.2 63 2.8 ESE 17 20 9 11 1026.5 1025.6 0.0
29/06:30am 7.2 2.7 2.0 69 2.2 E 15 19 8 10 1026.4 1025.5 0.0
29/06:00am 6.3 1.7 1.7 72 1.9 ESE 15 19 8 10 1026.4 1025.5 0.0
29/05:30am 6.6 1.6 1.6 70 2.1 ESE 17 20 9 11 1026.2 1025.3 0.0
29/05:00am 6.8 1.8 1.5 69 2.2 ESE 17 20 9 11 1026.0 1025.2 0.0
29/04:30am 6.7 2.1 1.4 69 2.2 ESE 15 17 8 9 1026.0 1025.2 0.0
29/04:00am 7.3 2.3 1.3 65 2.5 ESE 17 20 9 11 1025.9 1025.1 0.0
29/03:30am 7.6 2.2 1.1 63 2.7 ESE 19 22 10 12 1025.9 1025.1 0.0
29/03:00am 8.3 2.8 0.9 59 3.1 E 19 22 10 12 1025.8 1025.0 0.0
29/02:30am 8.8 3.3 0.9 57 3.3 E 19 24 10 13 1025.9 1025.1 0.0
29/02:00am 8.2 2.7 0.7 59 3.1 ESE 19 22 10 12 1026.0 1025.2 0.0
29/01:30am 9.0 3.5 0.9 57 3.4 ESE 19 22 10 12 1026.4 1025.5 0.0
29/01:00am 9.7 4.0 0.6 53 3.8 ESE 20 28 11 15 1026.3 1025.4 0.0
29/12:30am 10.1 4.4 0.6 51 4.0 E 20 26 11 14 1026.2 1025.3 0.0
29/12:00am 9.9 4.4 0.3 51 4.0 E 19 24 10 13 1026.5 1025.6 0.0
 
Date/Time
WST
Temp
°C
App
Temp
°C
Dew
Point
Rel
Hum
%
Delta-T
°C
Wind Press
QNH
hPa
Press
MSL
hPa
Rain
since 9 am
mm
Dir
 
Spd
km/h
Gust
km/h
Spd
kts
Gust
kts
28/11:30pm 9.8 4.7 0.5 52 3.9 E 17 20 9 11 1026.6 1025.7 0.0
28/11:00pm 9.7 5.0 0.6 53 3.8 E 15 20 8 11 1026.7 1025.8 0.0
28/10:30pm 10.2 5.4 0.4 50 4.1 E 15 19 8 10 1027.0 1026.2 0.0
28/10:00pm 10.3 5.9 0.3 50 4.2 ENE 13 17 7 9 1027.2 1026.4 0.0
28/09:30pm 10.4 6.0 0.1 49 4.3 E 13 17 7 9 1027.1 1026.3 0.0
28/09:00pm 10.8 6.0 0.0 47 4.5 E 15 17 8 9 1027.2 1026.4 0.0
28/08:30pm 10.3 6.3 0.3 50 4.2 E 11 13 6 7 1027.4 1026.6 0.0
28/08:00pm 10.8 6.4 0.4 48 4.4 ESE 13 15 7 8 1027.6 1026.8 0.0
28/07:30pm 11.6 6.8 -0.1 44 4.9 SE 15 17 8 9 1027.5 1026.7 0.0
28/07:00pm 11.2 6.7 0.0 46 4.7 SSE 13 15 7 8 1027.2 1026.4 0.0
28/06:30pm 11.8 7.8 0.3 45 4.9 SE 11 13 6 7 1026.7 1025.8 0.0
28/06:00pm 12.7 9.0 0.0 41 5.4 SE 9 11 5 6 1026.3 1025.4 0.0
28/05:30pm 14.3 10.2 -0.1 37 6.2 ESE 11 13 6 7 1025.8 1025.0 0.0
28/05:00pm 15.0 11.3 -0.2 35 6.6 ESE 9 9 5 5 1025.4 1024.5 0.0
28/04:30pm 16.7 12.8 -1.5 29 7.8 ESE 9 13 5 7 1025.1 1024.2 0.0
28/04:00pm 17.4 12.7 -1.7 27 8.2 SE 13 19 7 10 1024.9 1024.0 0.0
28/03:30pm 17.9 14.7 -0.8 28 8.2 SE 6 13 3 7 1024.8 1023.9 0.0
28/03:00pm 17.9 14.5 -0.8 28 8.2 S 7 15 4 8 1024.9 1024.0 0.0
28/02:30pm 17.6 13.7 -1.3 27 8.2 SSE 9 15 5 8 1024.8 1023.9 0.0
28/02:00pm 17.9 14.5 -0.8 28 8.2 NE 7 19 4 10 1024.9 1024.0 0.0
28/01:30pm 17.6 14.4 -0.6 29 8.0 SSW 6 11 3 6 1025.2 1024.3 0.0
28/01:00pm 17.3 13.6 -0.1 30 7.7 NW 9 13 5 7 1025.6 1024.8 0.0
28/12:30pm 17.9 14.2 0.0 30 8.0 SE 9 17 5 9 1025.9 1025.1 0.0
28/12:00pm 17.0 13.4 0.4 32 7.4 SE 9 17 5 9 1026.5 1025.6 0.0
28/11:30am 16.7 12.4 1.2 35 7.1 ENE 13 20 7 11 1026.9 1026.0 0.0
28/11:00am 16.1 11.4 0.9 35 6.8 E 15 22 8 12 1027.5 1026.7 0.0
28/10:30am 15.7 11.0 0.6 36 6.7 E 15 22 8 12 1027.8 1027.0 0.0
28/10:00am 14.9 9.9 1.2 39 6.1 ENE 17 30 9 16 1028.2 1027.3 0.0
28/09:30am 14.1 8.5 1.5 42 5.6 ENE 20 30 11 16 1028.5 1027.7 0.0
28/09:00am 13.4 7.9 1.7 45 5.2 ENE 20 32 11 17 1028.6 1027.8 0.0
28/08:30am 11.6 6.0 1.2 49 4.5 E 20 37 11 20 1028.5 1027.7 0.0
28/08:00am 10.8 6.2 1.3 52 4.1 E 15 26 8 14 1028.3 1027.4 0.0
28/07:30am 8.9 5.0 1.0 57 3.3 E 11 17 6 9 1028.2 1027.3 0.0
28/07:00am 6.3 2.4 0.9 68 2.2 ESE 11 13 6 7 1028.1 1027.2 0.0
28/06:30am 4.5 0.5 0.5 75 1.6 ESE 11 13 6 7 1027.7 1026.9 0.0
28/06:00am 4.2 -0.2 0.4 76 1.5 ESE 13 17 7 9 1027.5 1026.7 0.0
28/05:30am 4.5 -0.3 0.5 75 1.6 ESE 15 19 8 10 1027.3 1026.5 0.0
28/05:00am 4.6 -0.2 0.3 74 1.7 ESE 15 17 8 9 1027.1 1026.3 0.0
28/04:30am 4.7 0.6 0.1 72 1.8 ESE 11 15 6 8 1027.1 1026.3 0.0
28/04:00am 5.3 0.8 0.0 68 2.1 E 13 15 7 8 1027.1 1026.3 0.0
28/03:30am 5.2 0.3 -0.4 67 2.2 ESE 15 17 8 9 1027.2 1026.4 0.0
28/03:00am 6.0 1.5 -0.3 64 2.5 E 13 15 7 8 1027.2 1026.4 0.0
28/02:30am 7.4 2.5 -0.3 58 3.1 E 15 17 8 9 1027.3 1026.5 0.0
28/02:00am 7.8 3.3 -0.4 56 3.3 E 13 15 7 8 1027.3 1026.5 0.0
28/01:30am 8.5 3.9 -0.7 52 3.7 E 13 15 7 8 1027.5 1026.7 0.0
28/01:00am 9.5 4.6 -0.6 49 4.1 ENE 15 20 8 11 1027.6 1026.8 0.0
28/12:30am 8.9 3.9 -1.1 49 4.0 ENE 15 20 8 11 1027.5 1026.7 0.0
28/12:00am 8.2 3.1 -2.1 48 4.0 E 15 17 8 9 1027.4 1026.6 0.0
 
Date/Time
WST
Temp
°C
App
Temp
°C
Dew
Point
Rel
Hum
%
Delta-T
°C
Wind Press
QNH
hPa
Press
MSL
hPa
Rain
since 9 am
mm
Dir
 
Spd
km/h
Gust
km/h
Spd
kts
Gust
kts
27/11:30pm 8.3 3.4 -3.1 44 4.3 E 13 17 7 9 1027.4 1026.6 0.0
27/11:00pm 9.0 3.7 -3.8 40 4.8 E 15 19 8 10 1027.6 1026.8 0.0
27/10:30pm 9.6 4.2 -4.4 37 5.2 E 15 19 8 10 1027.6 1026.8 0.0
27/10:00pm 9.8 4.4 -4.8 35 5.4 ENE 15 19 8 10 1027.7 1026.9 0.0
27/09:30pm 9.9 4.9 -4.6 35 5.4 ENE 13 15 7 8 1027.8 1027.0 0.0
27/09:00pm 10.1 5.1 -4.7 35 5.5 E 13 15 7 8 1028.0 1027.1 0.0
27/08:30pm 9.4 4.4 -4.3 38 5.1 E 13 15 7 8 1027.8 1027.0 0.0
27/08:00pm 9.6 4.2 -4.8 36 5.3 ESE 15 17 8 9 1027.6 1026.8 0.0
27/07:30pm 9.9 4.8 -5.1 34 5.5 ESE 13 15 7 8 1027.6 1026.8 0.0
27/07:00pm 10.6 5.1 -5.5 32 5.9 ESE 15 15 8 8 1027.3 1026.5 0.0
27/06:30pm 11.4 5.9 -5.2 31 6.2 ESE 15 17 8 9 1027.0 1026.2 0.0
27/06:00pm 12.8 8.1 -5.5 27 6.9 ESE 11 11 6 6 1026.9 1026.0 0.0
27/05:30pm 13.5 8.8 -5.0 27 7.1 ESE 11 13 6 7 1026.7 1025.8 0.0
27/05:00pm 14.4 9.7 -5.3 25 7.6 ESE 11 13 6 7 1026.3 1025.4 0.0
27/04:30pm 16.5 11.7 -6.3 20 8.8 SE 11 15 6 8 1026.2 1025.3 0.0
27/04:00pm 17.4 13.5 -6.1 19 9.2 SSE 6 9 3 5 1026.0 1025.2 0.0
27/03:30pm 17.8 12.5 -7.2 17 9.7 ESE 13 15 7 8 1025.9 1025.1 0.0
27/03:00pm 17.7 12.4 -7.4 17 9.6 SE 13 20 7 11 1025.8 1025.0 0.0
27/02:30pm 17.5 12.8 -4.9 21 9.0 SE 11 17 6 9 1025.7 1024.9 0.0
27/02:00pm 17.4 13.5 -4.2 22 8.8 S 7 11 4 6 1025.9 1025.1 0.0
27/01:30pm 17.9 13.5 -2.3 25 8.6 ESE 11 17 6 9 1026.0 1025.2 0.0
27/01:00pm 17.1 12.6 -3.1 25 8.4 NE 11 17 6 9 1026.3 1025.4 0.0
27/12:30pm 16.4 12.3 -3.3 25 8.1 ENE 9 17 5 9 1026.7 1025.8 0.0
27/12:00pm 16.3 11.6 -1.9 28 7.7 E 13 22 7 12 1027.0 1026.2 0.0
27/11:30am 15.8 11.5 -1.4 31 7.4 E 11 15 6 8 1027.6 1026.8 0.0
27/11:00am 15.3 10.5 -2.3 29 7.3 ENE 13 19 7 10 1028.2 1027.3 0.0
27/10:30am 14.6 9.9 -1.7 32 6.8 ENE 13 22 7 12 1028.6 1027.8 0.0
27/10:00am 14.0 8.2 -1.7 34 6.5 ENE 19 26 10 14 1029.2 1028.4 0.0
27/09:30am 13.5 7.0 -2.2 33 6.5 ENE 22 30 12 16 1029.6 1028.8 0.0
27/09:00am 12.5 6.8 -1.0 39 5.6 ENE 19 26 10 14 1029.9 1029.0 0.0
27/08:30am 11.9 6.6 -0.6 42 5.2 ENE 17 28 9 15 1030.0 1029.2 0.0
27/08:00am 10.7 5.5 -0.1 47 4.5 ENE 17 28 9 15 1029.9 1029.0 0.0
27/07:30am 9.4 5.7 0.2 52 3.8 E 9 13 5 7 1029.6 1028.8 0.0
27/07:00am 8.0 3.9 -0.2 56 3.3 E 11 17 6 9 1029.3 1028.5 0.0
27/06:30am 7.8 4.0 -0.4 56 3.3 S 9 15 5 8 1028.9 1028.1 0.0
27/06:00am 5.3 1.9 -0.3 67 2.2 SE 7 13 4 7 1028.4 1027.5 0.0

Other Formats:

Comma delimited format used in spreadsheet applications
http://www.bom.gov.au/fwo/IDW60801/IDW60801.94461.axf

JavaScript Object Notation format (JSON) in row-major order
http://www.bom.gov.au/fwo/IDW60801/IDW60801.94461.json